createdAt,value
2023-03-31T00:02:14.040Z,87.34
2023-03-31T00:04:46.700Z,86.36
2023-03-31T00:07:22.498Z,86.56
2023-03-31T00:10:10.309Z,87.00
2023-03-31T00:12:48.806Z,86.51
2023-03-31T00:15:19.388Z,86.50
2023-03-31T00:17:50.163Z,86.95
2023-03-31T00:20:20.833Z,87.73
2023-03-31T00:22:54.829Z,88.05
2023-03-31T00:25:28.015Z,88.47
2023-03-31T00:27:58.989Z,88.54
2023-03-31T00:30:31.136Z,87.90
2023-03-31T00:33:02.834Z,87.81
2023-03-31T00:35:33.446Z,88.07
2023-03-31T00:38:04.081Z,88.19
2023-03-31T00:40:37.187Z,88.91
2023-03-31T00:43:31.256Z,89.35
2023-03-31T00:46:13.990Z,88.59
2023-03-31T00:48:51.755Z,88.77
2023-03-31T00:51:25.538Z,88.52
2023-03-31T00:54:02.177Z,88.67
2023-03-31T00:56:39.615Z,88.88
2023-03-31T00:59:15.050Z,88.58
2023-03-31T01:01:50.749Z,88.13
2023-03-31T01:04:22.915Z,87.87
2023-03-31T01:07:05.675Z,88.01
2023-03-31T01:09:38.953Z,88.06
2023-03-31T01:12:14.500Z,88.00
2023-03-31T01:14:45.555Z,87.90
2023-03-31T01:17:19.494Z,88.39
2023-03-31T01:20:14.419Z,88.55
2023-03-31T01:23:28.622Z,88.22
2023-03-31T01:26:42.234Z,87.91
2023-03-31T01:29:40.651Z,88.49
2023-03-31T01:32:45.771Z,87.78
2023-03-31T01:36:20.335Z,87.46
2023-03-31T01:39:20.502Z,88.20
2023-03-31T01:42:01.825Z,88.64
2023-03-31T01:44:39.249Z,88.55
2023-03-31T01:47:18.495Z,88.09
2023-03-31T01:49:59.268Z,88.11
2023-03-31T01:52:41.551Z,88.24
2023-03-31T01:55:16.883Z,88.07
2023-03-31T01:57:56.610Z,87.40
2023-03-31T02:00:33.628Z,86.94
2023-03-31T02:03:17.339Z,86.76
2023-03-31T02:05:53.313Z,86.61
2023-03-31T02:08:29.285Z,86.49
2023-03-31T02:11:03.036Z,86.80
2023-03-31T02:13:38.155Z,87.14
2023-03-31T02:16:15.817Z,87.03
2023-03-31T02:18:50.536Z,87.22
2023-03-31T02:21:23.034Z,87.37
2023-03-31T02:23:55.408Z,87.41
2023-03-31T02:26:31.985Z,86.98
2023-03-31T02:29:06.923Z,86.65
2023-03-31T02:31:45.812Z,86.27
2023-03-31T02:34:16.435Z,86.69
2023-03-31T02:36:48.425Z,86.61
2023-03-31T02:39:25.149Z,86.04
2023-03-31T02:41:58.789Z,85.90
2023-03-31T02:44:34.972Z,85.98
2023-03-31T02:47:06.644Z,86.06
2023-03-31T02:49:38.716Z,86.01
2023-03-31T02:52:48.523Z,86.39
2023-03-31T02:55:37.805Z,86.01
2023-03-31T02:58:52.697Z,86.00
2023-03-31T03:01:43.303Z,86.09
2023-03-31T03:04:35.006Z,86.07
2023-03-31T03:07:16.428Z,86.69
2023-03-31T03:10:01.182Z,86.30
2023-03-31T03:12:38.681Z,86.53
2023-03-31T03:15:14.359Z,86.34
2023-03-31T03:17:49.923Z,85.96
2023-03-31T03:20:23.918Z,85.86
2023-03-31T03:22:54.468Z,86.04
2023-03-31T03:25:25.030Z,86.15
2023-03-31T03:27:56.007Z,85.59
2023-03-31T03:30:26.540Z,86.09
2023-03-31T03:32:59.615Z,85.84
2023-03-31T03:35:30.260Z,86.17
2023-03-31T03:38:00.783Z,85.83
2023-03-31T03:40:31.292Z,85.36
2023-03-31T03:43:01.841Z,85.34
2023-03-31T03:45:34.346Z,84.75
2023-03-31T03:48:07.802Z,84.47
2023-03-31T03:50:41.500Z,84.20
2023-03-31T03:53:11.929Z,84.63
2023-03-31T03:55:42.479Z,84.61
2023-03-31T03:58:13.975Z,84.55
2023-03-31T04:00:45.587Z,84.08
2023-03-31T04:03:19.178Z,84.16
2023-03-31T04:05:52.060Z,84.14
2023-03-31T04:08:23.079Z,84.06
2023-03-31T04:10:53.495Z,84.14
2023-03-31T04:13:24.197Z,83.73
2023-03-31T04:15:54.813Z,83.56
2023-03-31T04:18:28.020Z,84.06
2023-03-31T04:21:04.380Z,84.64
2023-03-31T04:23:35.276Z,84.87
2023-03-31T04:26:09.023Z,84.38
2023-03-31T04:28:43.002Z,84.35
2023-03-31T04:31:15.722Z,84.95
2023-03-31T04:33:50.898Z,84.77
2023-03-31T04:36:21.395Z,84.59
2023-03-31T04:38:55.056Z,85.26
2023-03-31T04:41:27.736Z,86.56
2023-03-31T04:43:58.265Z,87.01
2023-03-31T04:46:28.852Z,88.25
2023-03-31T04:49:03.061Z,89.27
2023-03-31T04:51:33.517Z,90.19
2023-03-31T04:54:04.012Z,90.20
2023-03-31T04:56:34.676Z,90.78
2023-03-31T04:59:05.455Z,90.98
2023-03-31T05:01:36.765Z,91.37
2023-03-31T05:04:10.127Z,90.43
2023-03-31T05:06:40.591Z,90.31
2023-03-31T05:09:11.498Z,90.10
2023-03-31T05:11:42.834Z,90.57
2023-03-31T05:14:14.824Z,89.67
2023-03-31T05:16:45.391Z,89.83
2023-03-31T05:19:18.483Z,89.40
2023-03-31T05:21:49.214Z,88.43
2023-03-31T05:24:20.377Z,88.31
2023-03-31T05:26:53.032Z,88.19
2023-03-31T05:29:23.971Z,87.92
2023-03-31T05:31:55.473Z,87.49
2023-03-31T05:34:28.688Z,87.01
2023-03-31T05:36:59.225Z,86.19
2023-03-31T05:39:33.174Z,85.94
2023-03-31T05:42:05.819Z,84.96
2023-03-31T05:44:36.315Z,84.67
2023-03-31T05:47:07.234Z,84.43
2023-03-31T05:49:40.544Z,83.81
2023-03-31T05:52:11.870Z,83.47
2023-03-31T05:54:43.044Z,83.07
2023-03-31T05:57:14.034Z,81.82
2023-03-31T05:59:44.278Z,80.40
2023-03-31T06:02:17.369Z,80.13
2023-03-31T06:04:50.508Z,79.44
2023-03-31T06:07:22.754Z,78.86
2023-03-31T06:09:53.303Z,78.51
2023-03-31T06:12:23.905Z,77.58
2023-03-31T06:14:54.438Z,76.37
2023-03-31T06:17:25.018Z,76.28
2023-03-31T06:20:02.935Z,75.79
2023-03-31T06:22:36.269Z,75.92
2023-03-31T06:25:07.426Z,76.27
2023-03-31T06:27:37.900Z,75.40
2023-03-31T06:30:10.624Z,75.97
2023-03-31T06:32:41.183Z,76.11
2023-03-31T06:35:14.430Z,76.70
2023-03-31T06:37:45.039Z,76.37
2023-03-31T06:40:16.424Z,76.33
2023-03-31T06:42:47.012Z,76.49
2023-03-31T06:45:17.534Z,76.11
2023-03-31T06:47:48.259Z,74.80
2023-03-31T06:50:21.611Z,74.33
2023-03-31T06:52:53.315Z,72.11
2023-03-31T06:55:23.814Z,71.85
2023-03-31T06:57:54.228Z,70.80
2023-03-31T07:00:27.251Z,70.05
2023-03-31T07:02:57.922Z,68.89
2023-03-31T07:05:31.594Z,68.21
2023-03-31T07:08:03.361Z,67.68
2023-03-31T07:10:35.745Z,68.75
2023-03-31T07:13:06.454Z,68.53
2023-03-31T07:15:37.120Z,69.02
2023-03-31T07:18:08.029Z,68.79
2023-03-31T07:20:41.405Z,67.25
2023-03-31T07:23:12.582Z,67.29
2023-03-31T07:25:43.047Z,67.69
2023-03-31T07:28:14.025Z,67.00
2023-03-31T07:30:44.985Z,67.52
2023-03-31T07:33:16.179Z,65.47
2023-03-31T07:35:56.830Z,64.63
2023-03-31T07:38:38.764Z,65.01
2023-03-31T07:41:10.206Z,65.52
2023-03-31T07:43:40.905Z,66.48
2023-03-31T07:46:19.427Z,66.47
2023-03-31T07:48:50.691Z,67.65
2023-03-31T07:51:27.428Z,68.04
2023-03-31T07:53:58.202Z,68.11
2023-03-31T07:56:29.357Z,69.59
2023-03-31T07:59:00.051Z,70.80
2023-03-31T08:01:30.499Z,71.58
2023-03-31T08:04:01.411Z,71.91
2023-03-31T08:06:34.832Z,73.22
2023-03-31T08:09:07.333Z,74.68
2023-03-31T08:11:37.850Z,75.85
2023-03-31T08:14:08.353Z,76.74
2023-03-31T08:16:38.928Z,77.66
2023-03-31T08:19:09.793Z,78.55
2023-03-31T08:21:42.825Z,77.83
2023-03-31T08:24:13.331Z,78.63
2023-03-31T08:26:44.629Z,78.53
2023-03-31T08:29:15.355Z,77.31
2023-03-31T08:31:46.016Z,75.67
2023-03-31T08:34:16.481Z,76.00
2023-03-31T08:36:49.544Z,75.60
2023-03-31T08:39:20.020Z,73.94
2023-03-31T08:41:58.802Z,74.16
2023-03-31T08:44:37.191Z,73.88
2023-03-31T08:47:10.917Z,73.60
2023-03-31T08:49:46.386Z,74.03
2023-03-31T08:52:25.369Z,73.26
2023-03-31T08:55:00.754Z,73.09
2023-03-31T08:57:44.343Z,72.38
2023-03-31T09:00:19.890Z,71.43
2023-03-31T09:02:59.475Z,71.64
2023-03-31T09:05:59.520Z,70.81
2023-03-31T09:08:45.470Z,70.95
2023-03-31T09:11:28.860Z,71.61
2023-03-31T09:14:19.295Z,71.95
2023-03-31T09:16:58.233Z,70.62
2023-03-31T09:19:39.749Z,72.40
2023-03-31T09:22:18.638Z,72.33
2023-03-31T09:25:03.077Z,71.55
2023-03-31T09:27:37.732Z,72.78
2023-03-31T09:30:18.536Z,74.38
2023-03-31T09:32:51.514Z,74.32
2023-03-31T09:35:26.041Z,75.01
2023-03-31T09:37:57.397Z,74.96
2023-03-31T09:40:32.199Z,75.94
2023-03-31T09:43:05.396Z,77.49
2023-03-31T09:45:37.469Z,78.86
2023-03-31T09:48:14.705Z,77.95
2023-03-31T09:50:51.082Z,78.29
2023-03-31T09:53:31.676Z,79.97
2023-03-31T09:56:09.497Z,81.29
2023-03-31T09:58:45.301Z,81.73
2023-03-31T10:01:18.079Z,81.85
2023-03-31T10:03:54.080Z,80.87
2023-03-31T10:06:26.465Z,79.82
2023-03-31T10:09:00.999Z,79.51
2023-03-31T10:11:34.782Z,79.76
2023-03-31T10:14:08.504Z,79.44
2023-03-31T10:16:50.540Z,78.51
2023-03-31T10:19:26.645Z,79.06
2023-03-31T10:22:02.382Z,80.30
2023-03-31T10:24:42.678Z,79.74
2023-03-31T10:27:26.003Z,79.92
2023-03-31T10:29:58.180Z,81.83
2023-03-31T10:32:32.137Z,81.36
2023-03-31T10:35:09.880Z,82.81
2023-03-31T10:37:41.001Z,84.79
2023-03-31T10:40:18.453Z,84.68
2023-03-31T10:43:03.009Z,84.88
2023-03-31T10:45:40.424Z,87.03
2023-03-31T10:48:22.778Z,86.40
2023-03-31T10:50:53.553Z,86.97
2023-03-31T10:53:24.940Z,86.96
2023-03-31T10:56:12.636Z,86.73
2023-03-31T10:59:06.045Z,87.23
2023-03-31T11:01:49.637Z,87.98
2023-03-31T11:04:44.399Z,88.10
2023-03-31T11:07:30.663Z,89.32
2023-03-31T11:10:23.959Z,91.67
2023-03-31T11:13:02.329Z,91.06
2023-03-31T11:15:45.952Z,91.32
2023-03-31T11:18:38.435Z,91.55
2023-03-31T11:21:23.624Z,92.05
2023-03-31T11:24:04.282Z,93.47
2023-03-31T11:26:49.464Z,91.95
2023-03-31T11:29:36.130Z,93.05
2023-03-31T11:32:40.560Z,93.32
2023-03-31T11:35:38.787Z,93.06
2023-03-31T11:38:36.526Z,93.62
2023-03-31T11:41:11.665Z,93.46
2023-03-31T11:43:49.481Z,93.45
2023-03-31T11:46:26.579Z,94.30
2023-03-31T11:49:04.199Z,92.57
2023-03-31T11:51:47.579Z,93.84
2023-03-31T11:54:25.684Z,93.22
2023-03-31T11:56:58.411Z,92.41
2023-03-31T11:59:32.163Z,90.99
2023-03-31T12:02:12.918Z,89.50
2023-03-31T12:04:51.795Z,89.01
2023-03-31T12:07:27.939Z,87.92
2023-03-31T12:10:07.773Z,88.13
2023-03-31T12:12:44.387Z,89.67
2023-03-31T12:15:23.063Z,89.43
2023-03-31T12:18:02.211Z,88.37
2023-03-31T12:20:40.932Z,87.67
2023-03-31T12:23:20.678Z,88.90
2023-03-31T12:25:57.558Z,87.53
2023-03-31T12:28:29.889Z,88.22
2023-03-31T12:31:01.195Z,87.04
2023-03-31T12:33:36.909Z,87.36
2023-03-31T12:36:24.455Z,86.96
2023-03-31T12:39:13.688Z,85.76
2023-03-31T12:41:50.896Z,84.08
2023-03-31T12:44:39.137Z,82.92
2023-03-31T12:47:34.207Z,81.87
2023-03-31T12:50:44.298Z,81.91
2023-03-31T12:53:31.569Z,76.86
2023-03-31T12:56:02.749Z,76.26
2023-03-31T12:58:51.401Z,75.19
2023-03-31T13:01:23.398Z,75.08
2023-03-31T13:03:57.327Z,77.03
2023-03-31T13:06:55.717Z,75.40
2023-03-31T13:09:52.356Z,77.46
2023-03-31T13:12:28.233Z,75.48
2023-03-31T13:15:02.040Z,74.32
2023-03-31T13:17:36.035Z,75.10
2023-03-31T13:20:36.202Z,75.60
2023-03-31T13:23:10.588Z,74.65
2023-03-31T13:25:51.533Z,73.26
2023-03-31T13:28:43.067Z,68.81
2023-03-31T13:31:16.314Z,68.36
2023-03-31T13:33:52.143Z,66.51
2023-03-31T13:37:03.057Z,63.84
2023-03-31T13:39:59.945Z,64.17
2023-03-31T13:43:11.495Z,61.92
2023-03-31T13:45:58.554Z,62.08
2023-03-31T13:48:42.386Z,62.77
2023-03-31T13:51:32.762Z,61.21
2023-03-31T13:54:41.519Z,61.44
2023-03-31T13:57:52.719Z,57.47
2023-03-31T14:00:37.936Z,58.88
2023-03-31T14:03:31.011Z,61.09
2023-03-31T14:06:08.744Z,61.62
2023-03-31T14:08:54.536Z,59.46
2023-03-31T14:11:28.563Z,52.82
2023-03-31T14:14:08.044Z,47.72
2023-03-31T14:16:49.102Z,45.17
2023-03-31T14:19:58.230Z,41.56
2023-03-31T14:22:46.248Z,41.50
2023-03-31T14:25:30.174Z,42.50
2023-03-31T14:28:21.515Z,42.02
2023-03-31T14:31:05.465Z,42.98
2023-03-31T14:33:46.920Z,44.21
2023-03-31T14:36:28.691Z,45.52
2023-03-31T14:39:06.696Z,46.54
2023-03-31T14:41:38.178Z,48.99
2023-03-31T14:44:11.123Z,52.69
2023-03-31T14:46:42.474Z,53.96
2023-03-31T14:49:25.564Z,56.22
2023-03-31T14:51:57.911Z,56.85
2023-03-31T14:54:28.368Z,58.40
2023-03-31T14:57:03.282Z,59.00
2023-03-31T14:59:37.629Z,58.24
2023-03-31T15:02:10.174Z,57.26
2023-03-31T15:04:48.306Z,55.94
2023-03-31T15:07:20.357Z,54.05
2023-03-31T15:09:54.258Z,54.26
2023-03-31T15:12:26.481Z,55.53
2023-03-31T15:15:01.997Z,55.13
2023-03-31T15:17:35.503Z,56.50
2023-03-31T15:20:31.769Z,56.06
2023-03-31T15:23:25.063Z,57.32
2023-03-31T15:26:02.121Z,58.85
2023-03-31T15:28:43.032Z,59.98
2023-03-31T15:31:13.777Z,61.08
2023-03-31T15:33:44.434Z,60.55
2023-03-31T15:36:18.191Z,54.54
2023-03-31T15:38:48.972Z,49.69
2023-03-31T15:41:22.460Z,47.99
2023-03-31T15:44:07.584Z,46.60
2023-03-31T15:47:01.193Z,47.90
2023-03-31T15:49:33.101Z,51.74
2023-03-31T15:52:06.365Z,51.66
2023-03-31T15:54:40.311Z,47.92
2023-03-31T15:57:13.786Z,46.20
2023-03-31T15:59:55.180Z,47.86
2023-03-31T16:02:29.350Z,47.69
2023-03-31T16:05:06.167Z,49.88
2023-03-31T16:07:47.281Z,52.15
2023-03-31T16:10:23.414Z,53.66
2023-03-31T16:12:57.820Z,54.83
2023-03-31T16:15:36.976Z,56.06
2023-03-31T16:18:13.554Z,56.48
2023-03-31T16:20:49.801Z,56.74
2023-03-31T16:23:27.353Z,57.21
2023-03-31T16:25:58.556Z,57.04
2023-03-31T16:28:32.284Z,56.29
2023-03-31T16:31:05.416Z,56.56
2023-03-31T16:33:59.624Z,56.55
2023-03-31T16:36:30.216Z,57.00
2023-03-31T16:39:03.416Z,56.81
2023-03-31T16:41:34.596Z,57.51
2023-03-31T16:44:06.548Z,57.79
2023-03-31T16:46:37.286Z,58.78
2023-03-31T16:49:10.369Z,58.38
2023-03-31T16:51:40.923Z,58.82
2023-03-31T16:54:11.877Z,58.89
2023-03-31T16:56:42.135Z,59.52
2023-03-31T16:59:12.557Z,59.66
2023-03-31T17:01:43.229Z,60.17
2023-03-31T17:04:16.284Z,60.42
2023-03-31T17:06:47.738Z,61.31
2023-03-31T17:09:18.199Z,61.98
2023-03-31T17:11:49.182Z,62.92
2023-03-31T17:14:19.335Z,64.36
2023-03-31T17:16:50.223Z,65.58
2023-03-31T17:19:23.306Z,66.20
2023-03-31T17:21:55.291Z,66.99
2023-03-31T17:24:25.946Z,67.43
2023-03-31T17:26:56.798Z,67.86
2023-03-31T17:29:27.487Z,68.54
2023-03-31T17:31:58.028Z,68.61
2023-03-31T17:34:31.501Z,69.02
2023-03-31T17:37:02.682Z,68.86
2023-03-31T17:39:33.345Z,68.97
2023-03-31T17:42:04.603Z,68.69
2023-03-31T17:44:35.186Z,68.84
2023-03-31T17:47:06.016Z,68.71
2023-03-31T17:49:39.402Z,68.73
2023-03-31T17:52:09.959Z,68.48
2023-03-31T17:54:40.774Z,69.14
2023-03-31T17:57:11.585Z,69.55
2023-03-31T17:59:42.378Z,70.26
2023-03-31T18:02:16.576Z,70.97
2023-03-31T18:04:49.853Z,71.43
2023-03-31T18:07:23.404Z,71.60
2023-03-31T18:09:54.288Z,72.17
2023-03-31T18:12:25.018Z,72.05
2023-03-31T18:14:55.706Z,71.93
2023-03-31T18:17:29.215Z,71.88
2023-03-31T18:20:04.173Z,72.62
2023-03-31T18:22:35.822Z,72.79
2023-03-31T18:25:06.739Z,72.69
2023-03-31T18:27:37.460Z,72.25
2023-03-31T18:30:10.109Z,72.38
2023-03-31T18:32:40.740Z,72.74
2023-03-31T18:35:14.538Z,73.24
2023-03-31T18:37:47.451Z,73.04
2023-03-31T18:40:18.404Z,73.88
2023-03-31T18:42:49.011Z,73.98
2023-03-31T18:45:19.788Z,74.40
2023-03-31T18:47:51.009Z,74.45
2023-03-31T18:50:24.494Z,74.93
2023-03-31T18:52:55.040Z,74.66
2023-03-31T18:55:26.436Z,74.90
2023-03-31T18:57:57.070Z,75.51
2023-03-31T19:00:27.607Z,75.57
2023-03-31T19:02:58.433Z,76.13
2023-03-31T19:05:33.297Z,76.99
2023-03-31T19:08:04.863Z,78.40
2023-03-31T19:10:36.716Z,80.70
2023-03-31T19:13:07.917Z,81.98
2023-03-31T19:15:38.922Z,82.84
2023-03-31T19:18:09.136Z,82.82
2023-03-31T19:20:42.288Z,84.00
2023-03-31T19:23:12.847Z,84.26
2023-03-31T19:25:43.398Z,84.38
2023-03-31T19:28:18.615Z,84.79
2023-03-31T19:30:51.986Z,85.82
2023-03-31T19:33:23.887Z,86.00
2023-03-31T19:35:58.012Z,87.57
2023-03-31T19:38:32.296Z,87.57
2023-03-31T19:41:04.249Z,87.19
2023-03-31T19:43:35.717Z,87.79
2023-03-31T19:46:06.706Z,87.21
2023-03-31T19:48:37.993Z,86.83
2023-03-31T19:51:14.061Z,87.54
2023-03-31T19:53:44.625Z,87.86
2023-03-31T19:56:17.576Z,87.66
2023-03-31T19:58:50.374Z,87.02
2023-03-31T20:01:24.051Z,87.14
2023-03-31T20:03:56.258Z,87.57
2023-03-31T20:06:32.072Z,87.34
2023-03-31T20:09:06.475Z,88.34
2023-03-31T20:11:37.374Z,88.98
2023-03-31T20:14:08.367Z,88.82
2023-03-31T20:16:39.016Z,89.33
2023-03-31T20:19:09.674Z,88.81
2023-03-31T20:21:43.382Z,89.54
2023-03-31T20:24:20.852Z,90.06
2023-03-31T20:26:52.097Z,89.56
2023-03-31T20:29:24.337Z,89.60
2023-03-31T20:31:55.638Z,89.80
2023-03-31T20:34:27.779Z,90.50
2023-03-31T20:37:00.998Z,90.63
2023-03-31T20:39:31.539Z,91.46
2023-03-31T20:42:02.078Z,91.92
2023-03-31T20:44:32.638Z,92.12
2023-03-31T20:47:04.120Z,91.60
2023-03-31T20:49:34.699Z,92.00
2023-03-31T20:52:08.447Z,92.33
2023-03-31T20:54:39.270Z,92.51
2023-03-31T20:57:09.878Z,91.61
2023-03-31T20:59:40.704Z,92.47
2023-03-31T21:02:13.413Z,92.59
2023-03-31T21:04:43.988Z,91.72
2023-03-31T21:07:17.201Z,91.57
2023-03-31T21:09:47.965Z,91.59
2023-03-31T21:12:19.704Z,91.42
2023-03-31T21:14:50.284Z,91.72
2023-03-31T21:17:23.583Z,91.61
2023-03-31T21:19:54.048Z,91.96
2023-03-31T21:22:27.670Z,91.43
2023-03-31T21:24:58.298Z,91.43
2023-03-31T21:27:28.914Z,91.26
2023-03-31T21:29:59.430Z,92.03
2023-03-31T21:32:32.791Z,92.08
2023-03-31T21:35:03.245Z,92.31
2023-03-31T21:37:36.788Z,92.09
2023-03-31T21:40:08.705Z,92.95
2023-03-31T21:42:39.342Z,93.54
2023-03-31T21:45:12.487Z,93.87
2023-03-31T21:47:43.137Z,94.46
2023-03-31T21:50:14.544Z,95.45
2023-03-31T21:52:47.669Z,96.27
2023-03-31T21:55:19.195Z,97.04
2023-03-31T21:57:49.683Z,98.25
2023-03-31T22:00:20.808Z,100.00
2023-03-31T22:02:53.827Z,100.00
2023-03-31T22:05:29.091Z,100.00
2023-03-31T22:08:02.417Z,100.00
2023-03-31T22:10:33.075Z,100.00
2023-03-31T22:13:03.631Z,100.00
2023-03-31T22:15:34.520Z,100.00
2023-03-31T22:18:05.058Z,100.00
2023-03-31T22:20:35.505Z,100.00
2023-03-31T22:23:09.283Z,100.00
2023-03-31T22:25:39.754Z,100.00
2023-03-31T22:28:10.810Z,100.00
2023-03-31T22:30:41.067Z,100.00
2023-03-31T22:33:11.526Z,100.00
2023-03-31T22:35:42.106Z,100.00
2023-03-31T22:38:16.870Z,100.00
2023-03-31T22:40:47.378Z,100.00
2023-03-31T22:43:17.907Z,100.00
2023-03-31T22:45:48.482Z,100.00
2023-03-31T22:48:19.649Z,100.00
2023-03-31T22:50:50.347Z,100.00
2023-03-31T22:53:23.588Z,100.00
2023-03-31T22:55:54.759Z,100.00
2023-03-31T22:58:25.657Z,100.00
2023-03-31T23:01:00.049Z,100.00
2023-03-31T23:03:31.000Z,100.00
2023-03-31T23:06:06.333Z,100.00
2023-03-31T23:08:39.946Z,100.00
2023-03-31T23:11:12.717Z,100.00
2023-03-31T23:13:43.412Z,100.00
2023-03-31T23:16:19.208Z,100.00
2023-03-31T23:18:52.042Z,100.00
2023-03-31T23:21:25.856Z,100.00
2023-03-31T23:24:01.772Z,100.00
2023-03-31T23:26:35.491Z,100.00
2023-03-31T23:29:06.577Z,100.00
2023-03-31T23:31:37.018Z,100.00
2023-03-31T23:34:07.401Z,100.00
2023-03-31T23:36:37.832Z,100.00
2023-03-31T23:39:11.060Z,100.00
2023-03-31T23:41:41.467Z,100.00
2023-03-31T23:44:12.290Z,100.00
2023-03-31T23:46:44.471Z,100.00
2023-03-31T23:49:15.502Z,100.00
2023-03-31T23:51:46.125Z,100.00
2023-03-31T23:54:19.318Z,100.00
2023-03-31T23:56:49.813Z,100.00
2023-03-31T23:59:20.641Z,100.00
